| time (UTC) | temp F | wind direction | speed knots | gust knots | rain 1hr in | rain 24hr in | rain mn in | humidity % | barometer mb |
| 20260503224504 | 76 | 29 | 2.6 | 11.3 | 0.00 | 0.00 | 0.00 | 35 | 1011.9 |
| 20260503224005 | 75 | 22 | 3.5 | 11.3 | 0.00 | 0.00 | 0.00 | 36 | 1012.1 |
| 20260503223504 | 75 | 20 | 3.5 | 11.3 | 0.00 | 0.00 | 0.00 | 38 | 1012.2 |
| 20260503223005 | 75 | 13 | 2.6 | 11.3 | 0.00 | 0.00 | 0.00 | 37 | 1012.2 |
| 20260503222504 | 74 | 1 | 3.5 | 9.6 | 0.00 | 0.00 | 0.00 | 38 | 1012.3 |
| 20260503222004 | 74 | 3 | 3.5 | 10.4 | 0.00 | 0.00 | 0.00 | 37 | 1012.3 |
| 20260503221504 | 74 | 9 | 3.5 | 10.4 | 0.00 | 0.00 | 0.00 | 37 | 1012.4 |
| 20260503221004 | 74 | 6 | 3.5 | 10.4 | 0.00 | 0.00 | 0.00 | 37 | 1012.4 |
| 20260503220525 | 74 | 19 | 3.5 | 10.4 | 0.00 | 0.00 | 0.00 | 37 | 1012.5 |
| 20260503220025 | 74 | 18 | 3.5 | 10.4 | 0.00 | 0.00 | 0.00 | 37 | 1012.5 |
| 20260503215505 | 74 | 24 | 2.6 | 14.8 | 0.00 | 0.00 | 0.00 | 37 | 1012.7 |
| 20260503215004 | 74 | 36 | 3.5 | 14.8 | 0.00 | 0.00 | 0.00 | 39 | 1012.7 |
| 20260503214504 | 73 | 36 | 3.5 | 14.8 | 0.00 | 0.00 | 0.00 | 38 | 1012.7 |
| 20260503214004 | 74 | 30 | 3.5 | 14.8 | 0.00 | 0.00 | 0.00 | 39 | 1012.7 |
| 20260503213504 | 74 | 16 | 4.3 | 14.8 | 0.00 | 0.00 | 0.00 | 37 | 1012.7 |
| 20260503213004 | 74 | 10 | 4.3 | 12.2 | 0.00 | 0.00 | 0.00 | 38 | 1012.7 |
| 20260503212504 | 74 | 12 | 3.5 | 12.2 | 0.00 | 0.00 | 0.00 | 37 | 1012.8 |
| 20260503212004 | 74 | 9 | 3.5 | 9.6 | 0.00 | 0.00 | 0.00 | 39 | 1012.7 |
| 20260503211525 | 73 | 22 | 3.5 | 9.6 | 0.00 | 0.00 | 0.00 | 39 | 1012.8 |
| 20260503211004 | 74 | 32 | 3.5 | 10.4 | 0.00 | 0.00 | 0.00 | 38 | 1012.9 |
| 20260503210504 | 73 | 18 | 3.5 | 11.3 | 0.00 | 0.00 | 0.00 | 40 | 1012.8 |
| 20260503210004 | 73 | 4 | 3.5 | 11.3 | 0.00 | 0.00 | 0.00 | 38 | 1012.9 |
| 20260503205504 | 73 | 16 | 3.5 | 11.3 | 0.00 | 0.00 | 0.00 | 40 | 1013.0 |
| 20260503205004 | 73 | 26 | 3.5 | 11.3 | 0.00 | 0.00 | 0.00 | 39 | 1013.1 |
| 20260503204525 | 73 | 20 | 2.6 | 11.3 | 0.00 | 0.00 | 0.00 | 39 | 1013.1 |
| 20260503204004 | 72 | 7 | 2.6 | 10.4 | 0.00 | 0.00 | 0.00 | 43 | 1013.2 |
| 20260503203525 | 72 | 18 | 3.5 | 10.4 | 0.00 | 0.00 | 0.00 | 44 | 1013.2 |
| 20260503203004 | 72 | 21 | 3.5 | 10.4 | 0.00 | 0.00 | 0.00 | 43 | 1013.2 |
| 20260503202504 | 71 | 15 | 2.6 | 10.4 | 0.00 | 0.00 | 0.00 | 44 | 1013.3 |
| 20260503202004 | 71 | 4 | 2.6 | 10.4 | 0.00 | 0.00 | 0.00 | 44 | 1013.4 |
| 20260503201504 | 71 | 19 | 3.5 | 10.4 | 0.00 | 0.00 | 0.00 | 45 | 1013.4 |
| 20260503201025 | 71 | 36 | 3.5 | 10.4 | 0.00 | 0.00 | 0.00 | 45 | 1013.5 |
| 20260503200004 | 70 | 7 | 2.6 | 7.8 | 0.00 | 0.00 | 0.00 | 46 | 1013.7 |
| 20260503195504 | 71 | 26 | 2.6 | 7.8 | 0.00 | 0.00 | 0.00 | 47 | 1013.7 |
| 20260503195003 | 70 | 29 | 2.6 | 8.7 | 0.00 | 0.00 | 0.00 | 49 | 1013.8 |
| 20260503194504 | 70 | 21 | 2.6 | 8.7 | 0.00 | 0.00 | 0.00 | 49 | 1013.8 |
| 20260503194003 | 70 | 25 | 2.6 | 8.7 | 0.00 | 0.00 | 0.00 | 50 | 1013.7 |
| 20260503193525 | 70 | 29 | 2.6 | 8.7 | 0.00 | 0.00 | 0.00 | 51 | 1013.8 |
| 20260503193004 | 69 | 32 | 2.6 | 8.7 | 0.00 | 0.00 | 0.00 | 52 | 1013.9 |
| 20260503192525 | 69 | 26 | 2.6 | 8.7 | 0.00 | 0.00 | 0.00 | 53 | 1013.9 |
| 20260503192004 | 68 | 24 | 3.5 | 8.7 | 0.00 | 0.00 | 0.00 | 54 | 1014.1 |
| 20260503191504 | 68 | 34 | 3.5 | 8.7 | 0.00 | 0.00 | 0.00 | 52 | 1014.2 |
| 20260503191004 | 68 | 32 | 3.5 | 8.7 | 0.00 | 0.00 | 0.00 | 52 | 1014.1 |
| 20260503190504 | 69 | 15 | 3.5 | 13.0 | 0.00 | 0.00 | 0.00 | 51 | 1014.2 |
| 20260503190004 | 69 | 19 | 2.6 | 13.0 | 0.00 | 0.00 | 0.00 | 49 | 1014.1 |
| 20260503185504 | 69 | 36 | 1.7 | 13.0 | 0.00 | 0.00 | 0.00 | 52 | 1014.1 |
| 20260503185004 | 69 | 23 | 2.6 | 13.0 | 0.00 | 0.00 | 0.00 | 50 | 1014.2 |
| 20260503184503 | 69 | 13 | 2.6 | 13.0 | 0.00 | 0.00 | 0.00 | 49 | 1014.2 |
| 20260503184004 | 70 | 19 | 2.6 | 8.7 | 0.00 | 0.00 | 0.00 | 51 | 1014.3 |
| 20260503183524 | 69 | 38 | 2.6 | 8.7 | 0.00 | 0.00 | 0.00 | 52 | 1014.3 |
| 20260503183004 | 69 | 43 | 2.6 | 9.6 | 0.00 | 0.00 | 0.00 | 53 | 1014.3 |
| 20260503182503 | 69 | 17 | 2.6 | 9.6 | 0.00 | 0.00 | 0.00 | 54 | 1014.4 |
| 20260503182004 | 68 | 16 | 2.6 | 12.2 | 0.00 | 0.00 | 0.00 | 55 | 1014.4 |
| 20260503181504 | 68 | 27 | 3.5 | 12.2 | 0.00 | 0.00 | 0.00 | 56 | 1014.5 |
| 20260503181004 | 67 | 23 | 4.3 | 12.2 | 0.00 | 0.00 | 0.00 | 55 | 1014.4 |
| 20260503180503 | 67 | 27 | 4.3 | 12.2 | 0.00 | 0.00 | 0.00 | 56 | 1014.4 |
| 20260503180004 | 67 | 23 | 5.2 | 13.9 | 0.00 | 0.00 | 0.00 | 55 | 1014.4 |
| 20260503175525 | 67 | 20 | 4.3 | 13.9 | 0.00 | 0.00 | 0.00 | 55 | 1014.5 |
| 20260503175004 | 67 | 23 | 3.5 | 13.9 | 0.00 | 0.00 | 0.00 | 55 | 1014.6 |
| 20260503174503 | 67 | 20 | 4.3 | 13.9 | 0.00 | 0.00 | 0.00 | 56 | 1014.7 |
| 20260503174003 | 67 | 20 | 4.3 | 10.4 | 0.00 | 0.00 | 0.00 | 55 | 1014.8 |
| 20260503173524 | 67 | 16 | 3.5 | 10.4 | 0.00 | 0.00 | 0.00 | 56 | 1014.7 |
| 20260503173024 | 67 | 20 | 3.5 | 10.4 | 0.00 | 0.00 | 0.00 | 56 | 1014.7 |
| 20260503172504 | 67 | 29 | 3.5 | 10.4 | 0.00 | 0.00 | 0.00 | 55 | 1014.7 |
| 20260503172004 | 67 | 26 | 3.5 | 12.2 | 0.00 | 0.00 | 0.00 | 56 | 1014.6 |
| 20260503171504 | 67 | 27 | 3.5 | 12.2 | 0.00 | 0.00 | 0.00 | 57 | 1014.6 |
| 20260503171004 | 66 | 19 | 3.5 | 12.2 | 0.00 | 0.00 | 0.00 | 57 | 1014.7 |
| 20260503170503 | 66 | 21 | 4.3 | 12.2 | 0.00 | 0.00 | 0.00 | 57 | 1014.7 |
| 20260503151004 | 61 | 30 | 3.5 | 7.8 | 0.00 | 0.00 | 0.00 | 64 | 1014.9 |
| 20260503150504 | 61 | 31 | 3.5 | 7.8 | 0.00 | 0.00 | 0.00 | 64 | 1014.9 |
| 20260503131025 | 58 | 30 | 2.6 | 7.8 | 0.00 | 0.00 | 0.00 | 66 | 1014.5 |
| 20260503130504 | 58 | 27 | 2.6 | 7.8 | 0.00 | 0.00 | 0.00 | 66 | 1014.5 |
| 20260503110503 | 57 | 36 | 0.9 | 4.3 | 0.00 | 0.00 | 0.00 | 68 | 1014.8 |
| 20260503090503 | 58 | 26 | 0.9 | 6.1 | 0.00 | 0.00 | 0.00 | 65 | 1014.9 |
| 20260503081503 | 60 | 18 | 0.0 | 1.7 | 0.00 | 0.00 | 0.00 | 60 | 1015.0 |
| 20260503081003 | 60 | 21 | 0.0 | 1.7 | 0.00 | 0.00 | 0.00 | 60 | 1015.0 |
| 20260503080503 | 61 | 24 | 0.0 | 1.7 | 0.00 | 0.00 | 0.00 | 60 | 1015.1 |
| 20260503072505 | 62 | 47 | 0.9 | 4.3 | 0.00 | 0.00 | 0.00 | 55 | 1014.9 |
| 20260503072005 | 62 | 51 | 0.9 | 4.3 | 0.00 | 0.00 | 0.00 | 55 | 1014.8 |
| 20260503071526 | 62 | 43 | 0.9 | 4.3 | 0.00 | 0.00 | 0.00 | 55 | 1014.9 |
| 20260503071005 | 62 | 30 | 0.9 | 4.3 | 0.00 | 0.00 | 0.00 | 55 | 1014.8 |
| 20260503070505 | 63 | 31 | 0.9 | 3.5 | 0.00 | 0.00 | 0.00 | 54 | 1014.8 |
| 20260503055005 | 64 | 5 | 0.9 | 2.6 | 0.00 | 0.00 | 0.00 | 50 | 1014.6 |
| 20260503054526 | 64 | 5 | 0.9 | 2.6 | 0.00 | 0.00 | 0.00 | 50 | 1014.6 |
| 20260503054005 | 65 | 5 | 0.9 | 2.6 | 0.00 | 0.00 | 0.00 | 50 | 1014.6 |
| 20260503053505 | 65 | 5 | 0.9 | 2.6 | 0.00 | 0.00 | 0.00 | 49 | 1014.6 |
| 20260503053005 | 65 | 4 | 0.9 | 3.5 | 0.00 | 0.00 | 0.00 | 48 | 1014.6 |
| 20260503052505 | 65 | 3 | 0.9 | 3.5 | 0.00 | 0.00 | 0.00 | 48 | 1014.7 |
| 20260503052005 | 65 | 17 | 0.9 | 3.5 | 0.00 | 0.00 | 0.00 | 48 | 1014.7 |
| 20260503051505 | 65 | 23 | 0.9 | 3.5 | 0.00 | 0.00 | 0.00 | 47 | 1014.7 |
| 20260503051005 | 66 | 14 | 0.9 | 3.5 | 0.00 | 0.00 | 0.00 | 47 | 1014.6 |
| 20260503050505 | 66 | 12 | 0.9 | 3.5 | 0.00 | 0.00 | 0.00 | 47 | 1014.6 |
| 20260503050026 | 66 | 15 | 0.9 | 3.5 | 0.00 | 0.00 | 0.00 | 47 | 1014.6 |
| 20260503045505 | 66 | 8 | 0.9 | 3.5 | 0.00 | 0.00 | 0.00 | 46 | 1014.6 |
| 20260503045005 | 67 | 360 | 0.9 | 2.6 | 0.00 | 0.00 | 0.00 | 46 | 1014.6 |
| 20260503044505 | 67 | 360 | 0.9 | 2.6 | 0.00 | 0.00 | 0.00 | 45 | 1014.5 |
| 20260503044026 | 67 | 2 | 0.9 | 2.6 | 0.00 | 0.00 | 0.00 | 45 | 1014.5 |
| 20260503043505 | 67 | 10 | 0.9 | 2.6 | 0.00 | 0.00 | 0.00 | 45 | 1014.4 |
| 20260503043005 | 67 | 11 | 0.9 | 2.6 | 0.00 | 0.00 | 0.00 | 45 | 1014.5 |
| 20260503042505 | 67 | 2 | 0.9 | 2.6 | 0.00 | 0.00 | 0.00 | 44 | 1014.4 |
| 20260503042005 | 67 | 355 | 0.9 | 2.6 | 0.00 | 0.00 | 0.00 | 44 | 1014.4 |
| 20260503041505 | 67 | 355 | 0.9 | 2.6 | 0.00 | 0.00 | 0.00 | 44 | 1014.4 |
| 20260503041026 | 67 | 359 | 0.9 | 2.6 | 0.00 | 0.00 | 0.00 | 44 | 1014.3 |
| 20260503040505 | 68 | 4 | 0.9 | 2.6 | 0.00 | 0.00 | 0.00 | 44 | 1014.2 |
| 20260503040005 | 68 | 11 | 0.9 | 2.6 | 0.00 | 0.00 | 0.00 | 44 | 1014.2 |
| 20260503035526 | 68 | 11 | 0.9 | 2.6 | 0.00 | 0.00 | 0.00 | 44 | 1014.0 |
| 20260503035005 | 68 | 8 | 0.9 | 2.6 | 0.00 | 0.00 | 0.00 | 44 | 1014.1 |
| 20260503034505 | 68 | 4 | 0.9 | 3.5 | 0.00 | 0.00 | 0.00 | 44 | 1014.0 |
| 20260503034005 | 68 | 5 | 0.9 | 3.5 | 0.00 | 0.00 | 0.00 | 44 | 1013.8 |
| 20260503033526 | 68 | 12 | 0.9 | 4.3 | 0.00 | 0.00 | 0.00 | 44 | 1013.8 |
| 20260503033005 | 68 | 7 | 0.9 | 4.3 | 0.00 | 0.00 | 0.00 | 44 | 1013.9 |
| 20260503032505 | 68 | 7 | 1.7 | 4.3 | 0.00 | 0.00 | 0.00 | 44 | 1013.8 |
| 20260503032005 | 68 | 16 | 1.7 | 4.3 | 0.00 | 0.00 | 0.00 | 44 | 1013.6 |
| 20260503031505 | 68 | 27 | 1.7 | 4.3 | 0.00 | 0.00 | 0.00 | 44 | 1013.6 |
| 20260503031026 | 68 | 30 | 1.7 | 7.0 | 0.00 | 0.00 | 0.00 | 44 | 1013.6 |
| 20260503030506 | 68 | 25 | 1.7 | 7.0 | 0.00 | 0.00 | 0.00 | 44 | 1013.6 |
| 20260503030005 | 69 | 10 | 0.9 | 7.0 | 0.00 | 0.00 | 0.00 | 44 | 1013.6 |
| 20260503025505 | 69 | 20 | 1.7 | 7.0 | 0.00 | 0.00 | 0.00 | 44 | 1013.5 |
| 20260503025005 | 69 | 37 | 1.7 | 5.2 | 0.00 | 0.00 | 0.00 | 44 | 1013.5 |
| 20260503024505 | 69 | 43 | 1.7 | 5.2 | 0.00 | 0.00 | 0.00 | 44 | 1013.5 |
| 20260503024005 | 69 | 61 | 1.7 | 4.3 | 0.00 | 0.00 | 0.00 | 43 | 1013.5 |
| 20260503023505 | 69 | 64 | 1.7 | 5.2 | 0.00 | 0.00 | 0.00 | 44 | 1013.5 |
| 20260503023005 | 70 | 33 | 1.7 | 5.2 | 0.00 | 0.00 | 0.00 | 43 | 1013.5 |
| 20260503022505 | 70 | 23 | 1.7 | 7.8 | 0.00 | 0.00 | 0.00 | 43 | 1013.5 |
| 20260503022005 | 70 | 21 | 2.6 | 7.8 | 0.00 | 0.00 | 0.00 | 42 | 1013.5 |
| 20260503021505 | 70 | 16 | 2.6 | 7.8 | 0.00 | 0.00 | 0.00 | 43 | 1013.5 |
| 20260503021005 | 70 | 19 | 2.6 | 7.8 | 0.00 | 0.00 | 0.00 | 43 | 1013.5 |
| 20260503020505 | 70 | 23 | 2.6 | 7.8 | 0.00 | 0.00 | 0.00 | 43 | 1013.5 |
| 20260503020005 | 70 | 4 | 1.7 | 7.8 | 0.00 | 0.00 | 0.00 | 43 | 1013.6 |
| 20260503015505 | 70 | 358 | 1.7 | 4.3 | 0.00 | 0.00 | 0.00 | 44 | 1013.7 |
| 20260503015005 | 70 | 29 | 0.9 | 5.2 | 0.00 | 0.00 | 0.00 | 43 | 1013.8 |
| 20260503014505 | 70 | 38 | 1.7 | 5.2 | 0.00 | 0.00 | 0.00 | 44 | 1013.9 |
| 20260503014005 | 70 | 29 | 1.7 | 5.2 | 0.00 | 0.00 | 0.00 | 43 | 1013.9 |
| 20260503013505 | 71 | 14 | 2.6 | 5.2 | 0.00 | 0.00 | 0.00 | 43 | 1013.9 |
| 20260503013005 | 71 | 24 | 1.7 | 5.2 | 0.00 | 0.00 | 0.00 | 42 | 1013.8 |
| 20260503012505 | 71 | 32 | 1.7 | 5.2 | 0.00 | 0.00 | 0.00 | 42 | 1013.9 |
| 20260503012005 | 71 | 18 | 1.7 | 5.2 | 0.00 | 0.00 | 0.00 | 42 | 1014.0 |
| 20260503011005 | 71 | 25 | 1.7 | 7.0 | 0.00 | 0.00 | 0.00 | 43 | 1013.9 |
| 20260503010526 | 71 | 30 | 2.6 | 7.0 | 0.00 | 0.00 | 0.00 | 43 | 1013.9 |
| 20260503010026 | 71 | 35 | 2.6 | 7.0 | 0.00 | 0.00 | 0.00 | 43 | 1013.9 |
| 20260503005505 | 71 | 31 | 1.7 | 7.0 | 0.00 | 0.00 | 0.00 | 43 | 1013.9 |
| 20260503005005 | 71 | 34 | 2.6 | 7.0 | 0.00 | 0.00 | 0.00 | 44 | 1013.9 |
| 20260503004505 | 71 | 38 | 2.6 | 7.0 | 0.00 | 0.00 | 0.00 | 43 | 1013.9 |
| 20260503004005 | 71 | 36 | 2.6 | 8.7 | 0.00 | 0.00 | 0.00 | 43 | 1013.9 |
| 20260503003504 | 71 | 39 | 2.6 | 8.7 | 0.00 | 0.00 | 0.00 | 44 | 1014.1 |
| 20260503003005 | 72 | 30 | 2.6 | 8.7 | 0.00 | 0.00 | 0.00 | 44 | 1014.0 |
| 20260503002526 | 72 | 27 | 2.6 | 8.7 | 0.00 | 0.00 | 0.00 | 44 | 1014.0 |
| 20260503002005 | 72 | 30 | 2.6 | 8.7 | 0.00 | 0.00 | 0.00 | 44 | 1014.0 |
| 20260503001504 | 72 | 31 | 2.6 | 7.8 | 0.00 | 0.00 | 0.00 | 46 | 1014.0 |
| 20260503001005 | 71 | 29 | 3.5 | 7.8 | 0.00 | 0.00 | 0.00 | 45 | 1014.0 |
| 20260503000505 | 72 | 22 | 3.5 | 7.8 | 0.00 | 0.00 | 0.00 | 45 | 1013.9 |
| 20260503000005 | 72 | 8 | 2.6 | 7.8 | 0.00 | 0.00 | 0.00 | 45 | 1014.1 |
| 20260502235526 | 72 | 4 | 2.6 | 8.7 | 0.00 | 0.00 | 0.00 | 45 | 1014.2 |
| 20260502235005 | 72 | 19 | 2.6 | 8.7 | 0.00 | 0.00 | 0.00 | 46 | 1014.1 |
| 20260502234526 | 72 | 12 | 2.6 | 8.7 | 0.00 | 0.00 | 0.00 | 46 | 1014.3 |
| 20260502234004 | 71 | 11 | 2.6 | 8.7 | 0.00 | 0.00 | 0.00 | 46 | 1014.3 |
| 20260502233504 | 71 | 10 | 2.6 | 8.7 | 0.00 | 0.00 | 0.00 | 45 | 1014.3 |
| 20260502233004 | 72 | 26 | 2.6 | 7.8 | 0.00 | 0.00 | 0.00 | 45 | 1014.5 |
| 20260502232526 | 72 | 50 | 1.7 | 8.7 | 0.00 | 0.00 | 0.00 | 46 | 1014.5 |
| 20260502231504 | 71 | 5 | 1.7 | 8.7 | 0.00 | 0.00 | 0.00 | 47 | 1014.6 |
| 20260502231004 | 71 | 21 | 2.6 | 8.7 | 0.00 | 0.00 | 0.00 | 49 | 1014.6 |
| 20260502230504 | 70 | 22 | 2.6 | 8.7 | 0.00 | 0.00 | 0.00 | 48 | 1014.7 |
| 20260502230004 | 70 | 20 | 2.6 | 8.7 | 0.00 | 0.00 | 0.00 | 50 | 1014.8 |
| 20260502225504 | 70 | 17 | 2.6 | 9.6 | 0.00 | 0.00 | 0.00 | 50 | 1014.9 |
| 20260502225004 | 70 | 16 | 2.6 | 11.3 | 0.00 | 0.00 | 0.00 | 51 | 1015.0 |